createdAt,value
2022-10-14T00:01:23.665Z,100.00
2022-10-14T00:03:52.505Z,100.00
2022-10-14T00:06:29.273Z,100.00
2022-10-14T00:09:02.180Z,100.00
2022-10-14T00:11:34.588Z,100.00
2022-10-14T00:14:17.246Z,100.00
2022-10-14T00:16:48.945Z,100.00
2022-10-14T00:19:16.517Z,100.00
2022-10-14T00:21:46.253Z,100.00
2022-10-14T00:24:17.473Z,100.00
2022-10-14T00:26:45.505Z,100.00
2022-10-14T00:29:17.993Z,100.00
2022-10-14T00:31:46.120Z,100.00
2022-10-14T00:34:16.111Z,100.00
2022-10-14T00:36:44.643Z,100.00
2022-10-14T00:39:12.391Z,100.00
2022-10-14T00:41:40.901Z,100.00
2022-10-14T00:44:27.710Z,100.00
2022-10-14T00:46:56.674Z,100.00
2022-10-14T00:49:40.885Z,100.00
2022-10-14T00:52:22.145Z,100.00
2022-10-14T00:55:03.989Z,100.00
2022-10-14T00:57:32.716Z,100.00
2022-10-14T01:00:12.254Z,100.00
2022-10-14T01:02:39.879Z,100.00
2022-10-14T01:05:14.610Z,100.00
2022-10-14T01:08:07.702Z,100.00
2022-10-14T01:11:13.040Z,100.00
2022-10-14T01:14:01.454Z,100.00
2022-10-14T01:17:02.990Z,100.00
2022-10-14T01:19:47.591Z,100.00
2022-10-14T01:22:35.223Z,100.00
2022-10-14T01:25:27.754Z,100.00
2022-10-14T01:28:09.581Z,100.00
2022-10-14T01:31:01.002Z,100.00
2022-10-14T01:33:39.130Z,100.00
2022-10-14T01:36:24.524Z,100.00
2022-10-14T01:39:10.580Z,100.00
2022-10-14T01:41:52.789Z,100.00
2022-10-14T01:44:27.068Z,100.00
2022-10-14T01:46:57.569Z,100.00
2022-10-14T01:49:53.897Z,100.00
2022-10-14T01:52:31.823Z,100.00
2022-10-14T01:55:14.306Z,100.00
2022-10-14T01:57:49.103Z,100.00
2022-10-14T02:00:16.874Z,100.00
2022-10-14T02:02:43.878Z,100.00
2022-10-14T02:05:45.337Z,100.00
2022-10-14T02:09:03.330Z,100.00
2022-10-14T02:12:19.020Z,100.00
2022-10-14T02:15:20.791Z,100.00
2022-10-14T02:18:40.580Z,100.00
2022-10-14T02:21:27.529Z,100.00
2022-10-14T02:24:34.070Z,100.00
2022-10-14T02:27:11.410Z,100.00
2022-10-14T02:29:45.554Z,100.00
2022-10-14T02:32:21.057Z,100.00
2022-10-14T02:34:54.745Z,100.00
2022-10-14T02:37:26.050Z,100.00
2022-10-14T02:40:38.086Z,100.00
2022-10-14T02:43:08.125Z,100.00
2022-10-14T02:45:35.333Z,100.00
2022-10-14T02:48:02.314Z,100.00
2022-10-14T02:50:29.359Z,100.00
2022-10-14T02:52:56.301Z,100.00
2022-10-14T02:55:23.511Z,100.00
2022-10-14T02:57:51.070Z,100.00
2022-10-14T03:00:19.346Z,100.00
2022-10-14T03:02:46.380Z,100.00
2022-10-14T03:05:13.642Z,100.00
2022-10-14T03:07:40.713Z,100.00
2022-10-14T03:10:08.250Z,100.00
2022-10-14T03:12:35.361Z,100.00
2022-10-14T03:15:02.288Z,100.00
2022-10-14T03:17:29.377Z,100.00
2022-10-14T03:19:56.436Z,100.00
2022-10-14T03:22:23.863Z,100.00
2022-10-14T03:24:50.994Z,100.00
2022-10-14T03:27:17.956Z,100.00
2022-10-14T03:29:44.884Z,100.00
2022-10-14T03:32:11.863Z,100.00
2022-10-14T03:34:38.989Z,100.00
2022-10-14T03:37:06.355Z,100.00
2022-10-14T03:39:33.465Z,100.00
2022-10-14T03:42:00.510Z,100.00
2022-10-14T03:44:27.490Z,100.00
2022-10-14T03:46:54.496Z,100.00
2022-10-14T03:49:21.606Z,100.00
2022-10-14T03:51:48.563Z,100.00
2022-10-14T03:54:15.612Z,100.00
2022-10-14T03:56:42.623Z,100.00
2022-10-14T03:59:09.615Z,100.00
2022-10-14T04:01:36.596Z,100.00
2022-10-14T04:04:03.715Z,100.00
2022-10-14T04:06:31.650Z,100.00
2022-10-14T04:08:58.676Z,100.00
2022-10-14T04:11:25.666Z,100.00
2022-10-14T04:13:52.703Z,100.00
2022-10-14T04:16:20.389Z,100.00
2022-10-14T04:18:47.347Z,100.00
2022-10-14T04:21:14.387Z,100.00
2022-10-14T04:23:41.303Z,100.00
2022-10-14T04:26:10.337Z,100.00
2022-10-14T04:28:38.593Z,100.00
2022-10-14T04:31:06.448Z,100.00
2022-10-14T04:33:35.072Z,100.00
2022-10-14T04:36:06.530Z,100.00
2022-10-14T04:38:34.015Z,100.00
2022-10-14T04:41:01.120Z,100.00
2022-10-14T04:43:28.105Z,100.00
2022-10-14T04:45:55.130Z,100.00
2022-10-14T04:48:22.389Z,100.00
2022-10-14T04:50:54.234Z,100.00
2022-10-14T04:53:22.458Z,100.00
2022-10-14T04:55:50.229Z,100.00
2022-10-14T04:58:17.474Z,100.00
2022-10-14T05:00:44.555Z,100.00
2022-10-14T05:03:11.757Z,100.00
2022-10-14T05:05:38.883Z,100.00
2022-10-14T05:08:07.041Z,100.00
2022-10-14T05:10:34.443Z,100.00
2022-10-14T05:13:01.840Z,100.00
2022-10-14T05:15:29.134Z,100.00
2022-10-14T05:17:56.405Z,100.00
2022-10-14T05:20:23.362Z,100.00
2022-10-14T05:22:50.715Z,100.00
2022-10-14T05:25:17.741Z,100.00
2022-10-14T05:27:44.812Z,100.00
2022-10-14T05:30:12.655Z,100.00
2022-10-14T05:32:39.703Z,100.00
2022-10-14T05:35:07.079Z,100.00
2022-10-14T05:37:34.092Z,100.00
2022-10-14T05:40:01.038Z,100.00
2022-10-14T05:42:28.031Z,100.00
2022-10-14T05:44:54.955Z,100.00
2022-10-14T05:47:21.952Z,100.00
2022-10-14T05:49:48.906Z,100.00
2022-10-14T05:52:16.133Z,100.00
2022-10-14T05:54:43.061Z,100.00
2022-10-14T05:57:10.214Z,100.00
2022-10-14T05:59:37.180Z,100.00
2022-10-14T06:02:04.263Z,100.00
2022-10-14T06:04:31.164Z,100.00
2022-10-14T06:07:00.038Z,100.00
2022-10-14T06:09:27.102Z,100.00
2022-10-14T06:11:54.014Z,100.00
2022-10-14T06:14:20.954Z,100.00
2022-10-14T06:16:51.193Z,100.00
2022-10-14T06:19:18.149Z,100.00
2022-10-14T06:21:45.132Z,100.00
2022-10-14T06:24:12.271Z,100.00
2022-10-14T06:26:39.681Z,100.00
2022-10-14T06:29:06.849Z,100.00
2022-10-14T06:31:34.443Z,100.00
2022-10-14T06:34:06.337Z,100.00
2022-10-14T06:36:35.240Z,100.00
2022-10-14T06:39:02.182Z,100.00
2022-10-14T06:41:29.141Z,100.00
2022-10-14T06:43:56.166Z,100.00
2022-10-14T06:46:25.095Z,100.00
2022-10-14T06:48:52.178Z,100.00
2022-10-14T06:51:19.277Z,100.00
2022-10-14T06:53:46.217Z,100.00
2022-10-14T06:56:13.222Z,100.00
2022-10-14T06:58:40.338Z,100.00
2022-10-14T07:01:08.981Z,100.00
2022-10-14T07:03:39.167Z,100.00
2022-10-14T07:06:08.284Z,100.00
2022-10-14T07:08:36.027Z,100.00
2022-10-14T07:11:04.369Z,100.00
2022-10-14T07:13:32.248Z,100.00
2022-10-14T07:15:59.519Z,100.00
2022-10-14T07:18:26.808Z,100.00
2022-10-14T07:20:53.843Z,100.00
2022-10-14T07:23:20.948Z,100.00
2022-10-14T07:25:48.008Z,100.00
2022-10-14T07:28:15.548Z,100.00
2022-10-14T07:30:42.557Z,100.00
2022-10-14T07:33:09.566Z,100.00
2022-10-14T07:35:39.167Z,100.00
2022-10-14T07:38:06.217Z,100.00
2022-10-14T07:40:33.250Z,100.00
2022-10-14T07:43:00.215Z,100.00
2022-10-14T07:45:27.249Z,100.00
2022-10-14T07:47:54.244Z,100.00
2022-10-14T07:50:21.215Z,100.00
2022-10-14T07:52:48.244Z,100.00
2022-10-14T07:55:15.270Z,100.00
2022-10-14T07:57:42.382Z,100.00
2022-10-14T08:00:10.330Z,100.00
2022-10-14T08:02:37.196Z,100.00
2022-10-14T08:05:25.505Z,100.00
2022-10-14T08:07:51.967Z,100.00
2022-10-14T08:10:19.039Z,100.00
2022-10-14T08:12:46.404Z,100.00
2022-10-14T08:15:13.490Z,100.00
2022-10-14T08:17:40.551Z,100.00
2022-10-14T08:20:08.430Z,100.00
2022-10-14T08:22:35.625Z,100.00
2022-10-14T08:25:02.654Z,100.00
2022-10-14T08:27:29.622Z,100.00
2022-10-14T08:29:56.580Z,100.00
2022-10-14T08:32:24.155Z,100.00
2022-10-14T08:34:56.051Z,100.00
2022-10-14T08:37:23.574Z,100.00
2022-10-14T08:39:50.532Z,100.00
2022-10-14T08:43:00.143Z,100.00
2022-10-14T08:45:49.828Z,100.00
2022-10-14T08:48:26.502Z,100.00
2022-10-14T08:51:17.156Z,100.00
2022-10-14T08:53:56.455Z,100.00
2022-10-14T08:56:24.671Z,100.00
2022-10-14T08:59:10.281Z,100.00
2022-10-14T09:01:54.442Z,100.00
2022-10-14T09:04:21.640Z,100.00
2022-10-14T09:06:52.411Z,100.00
2022-10-14T09:09:49.552Z,100.00
2022-10-14T09:12:33.214Z,100.00
2022-10-14T09:15:16.285Z,100.00
2022-10-14T09:18:23.949Z,100.00
2022-10-14T09:20:54.107Z,100.00
2022-10-14T09:23:27.384Z,100.00
2022-10-14T09:26:09.434Z,100.00
2022-10-14T09:28:43.616Z,100.00
2022-10-14T09:31:14.566Z,100.00
2022-10-14T09:33:45.018Z,100.00
2022-10-14T09:36:22.329Z,100.00
2022-10-14T09:38:55.589Z,100.00
2022-10-14T09:41:32.074Z,100.00
2022-10-14T09:44:28.114Z,100.00
2022-10-14T09:47:12.288Z,100.00
2022-10-14T09:49:46.070Z,100.00
2022-10-14T09:52:30.660Z,100.00
2022-10-14T09:55:01.804Z,100.00
2022-10-14T09:57:29.538Z,100.00
2022-10-14T10:00:03.776Z,100.00
2022-10-14T10:02:46.932Z,100.00
2022-10-14T10:05:31.022Z,100.00
2022-10-14T10:08:18.641Z,100.00
2022-10-14T10:11:10.552Z,100.00
2022-10-14T10:13:56.663Z,100.00
2022-10-14T10:16:32.862Z,100.00
2022-10-14T10:19:34.437Z,100.00
2022-10-14T10:24:51.744Z,100.00
2022-10-14T10:27:28.134Z,100.00
2022-10-14T10:29:56.309Z,100.00
2022-10-14T10:33:03.497Z,100.00
2022-10-14T10:36:21.378Z,100.00
2022-10-14T10:39:18.576Z,100.00
2022-10-14T10:42:15.406Z,100.00
2022-10-14T10:45:46.797Z,100.00
2022-10-14T10:48:46.738Z,100.00
2022-10-14T10:51:38.843Z,100.00
2022-10-14T10:54:56.691Z,100.00
2022-10-14T10:58:20.799Z,100.00
2022-10-14T11:01:41.205Z,100.00
2022-10-14T11:04:34.934Z,100.00
2022-10-14T11:07:55.825Z,100.00
2022-10-14T11:11:36.103Z,100.00
2022-10-14T11:15:05.472Z,100.00
2022-10-14T11:18:00.211Z,100.00
2022-10-14T11:21:05.363Z,100.00
2022-10-14T11:24:07.994Z,100.00
2022-10-14T11:27:00.197Z,100.00
2022-10-14T11:30:10.654Z,100.00
2022-10-14T11:33:24.027Z,100.00
2022-10-14T11:36:44.564Z,100.00
2022-10-14T11:39:55.369Z,100.00
2022-10-14T11:43:13.647Z,100.00
2022-10-14T11:46:03.708Z,98.47
2022-10-14T11:48:34.907Z,99.62
2022-10-14T11:51:45.504Z,100.00
2022-10-14T11:54:39.621Z,100.00
2022-10-14T11:57:30.250Z,100.00
2022-10-14T12:00:23.819Z,100.00
2022-10-14T12:03:30.574Z,100.00
2022-10-14T12:06:17.687Z,100.00
2022-10-14T12:09:11.294Z,100.00
2022-10-14T12:11:57.820Z,99.60
2022-10-14T12:14:41.098Z,98.04
2022-10-14T12:17:47.280Z,98.34
2022-10-14T12:20:44.862Z,100.00
2022-10-14T12:23:48.429Z,100.00
2022-10-14T12:26:23.886Z,100.00
2022-10-14T12:28:54.469Z,100.00
2022-10-14T12:31:38.267Z,100.00
2022-10-14T12:34:11.060Z,100.00
2022-10-14T12:36:43.154Z,100.00
2022-10-14T12:39:18.913Z,100.00
2022-10-14T12:41:59.733Z,100.00
2022-10-14T12:44:58.951Z,100.00
2022-10-14T12:47:36.000Z,100.00
2022-10-14T12:50:29.753Z,100.00
2022-10-14T12:53:05.229Z,100.00
2022-10-14T12:55:54.146Z,100.00
2022-10-14T12:58:40.458Z,100.00
2022-10-14T13:01:21.606Z,91.79
2022-10-14T13:04:03.869Z,93.78
2022-10-14T13:06:43.056Z,90.80
2022-10-14T13:09:12.865Z,91.37
2022-10-14T13:11:53.150Z,91.90
2022-10-14T13:15:00.977Z,93.42
2022-10-14T13:17:48.229Z,97.63
2022-10-14T13:20:33.934Z,96.54
2022-10-14T13:23:53.649Z,98.45
2022-10-14T13:26:41.407Z,96.63
2022-10-14T13:29:10.931Z,99.06
2022-10-14T13:32:35.262Z,99.17
2022-10-14T13:35:46.015Z,98.72
2022-10-14T13:38:23.999Z,97.79
2022-10-14T13:40:57.397Z,97.62
2022-10-14T13:43:43.401Z,97.28
2022-10-14T13:46:47.457Z,99.17
2022-10-14T13:49:34.706Z,100.00
2022-10-14T13:52:13.714Z,100.00
2022-10-14T13:54:40.696Z,100.00
2022-10-14T14:00:44.429Z,99.28
2022-10-14T14:03:45.163Z,99.64
2022-10-14T14:06:21.817Z,100.00
2022-10-14T14:09:04.187Z,100.00
2022-10-14T14:11:37.813Z,100.00
2022-10-14T14:14:23.023Z,100.00
2022-10-14T14:17:00.775Z,100.00
2022-10-14T14:19:35.256Z,100.00
2022-10-14T14:22:30.765Z,100.00
2022-10-14T14:25:34.604Z,100.00
2022-10-14T14:28:06.160Z,100.00
2022-10-14T14:30:39.198Z,100.00
2022-10-14T14:33:19.620Z,100.00
2022-10-14T14:36:03.866Z,100.00
2022-10-14T14:38:37.561Z,100.00
2022-10-14T14:41:23.070Z,100.00
2022-10-14T14:44:26.767Z,100.00
2022-10-14T14:46:53.786Z,100.00
2022-10-14T14:49:36.081Z,100.00
2022-10-14T14:52:06.307Z,100.00
2022-10-14T14:54:33.463Z,100.00
2022-10-14T14:57:00.499Z,100.00
2022-10-14T14:59:40.735Z,100.00
2022-10-14T15:02:23.314Z,100.00
2022-10-14T15:05:08.406Z,100.00
2022-10-14T15:07:37.771Z,100.00
2022-10-14T15:10:20.264Z,100.00
2022-10-14T15:12:58.697Z,100.00
2022-10-14T15:15:34.669Z,100.00
2022-10-14T15:18:24.701Z,100.00
2022-10-14T15:20:52.706Z,100.00
2022-10-14T15:23:50.610Z,100.00
2022-10-14T15:26:36.373Z,100.00
2022-10-14T15:29:16.667Z,100.00
2022-10-14T15:32:02.707Z,100.00
2022-10-14T15:34:29.919Z,100.00
2022-10-14T15:36:56.985Z,100.00
2022-10-14T15:39:24.142Z,100.00
2022-10-14T15:41:51.406Z,100.00
2022-10-14T15:44:18.445Z,100.00
2022-10-14T15:47:05.649Z,100.00
2022-10-14T15:49:42.958Z,100.00
2022-10-14T15:52:19.324Z,100.00
2022-10-14T15:54:49.373Z,100.00
2022-10-14T15:57:17.342Z,100.00
2022-10-14T15:59:44.276Z,100.00
2022-10-14T16:02:35.982Z,100.00
2022-10-14T16:05:22.392Z,100.00
2022-10-14T16:07:49.898Z,100.00
2022-10-14T16:10:22.022Z,100.00
2022-10-14T16:12:50.376Z,100.00
2022-10-14T16:15:56.469Z,100.00
2022-10-14T16:18:24.678Z,100.00
2022-10-14T16:20:52.708Z,100.00
2022-10-14T16:23:28.310Z,100.00
2022-10-14T16:26:00.414Z,100.00
2022-10-14T16:28:27.418Z,100.00
2022-10-14T16:30:54.484Z,100.00
2022-10-14T16:33:22.418Z,100.00
2022-10-14T16:35:53.460Z,100.00
2022-10-14T16:38:23.002Z,100.00
2022-10-14T16:41:00.019Z,100.00
2022-10-14T16:43:29.512Z,100.00
2022-10-14T16:46:05.665Z,100.00
2022-10-14T16:48:35.784Z,100.00
2022-10-14T16:51:03.810Z,100.00
2022-10-14T16:53:40.640Z,100.00
2022-10-14T16:56:39.953Z,100.00
2022-10-14T16:59:10.335Z,100.00
2022-10-14T17:01:37.426Z,100.00
2022-10-14T17:04:04.616Z,100.00
2022-10-14T17:06:32.395Z,100.00
2022-10-14T17:08:59.384Z,100.00
2022-10-14T17:11:29.345Z,100.00
2022-10-14T17:13:59.817Z,100.00
2022-10-14T17:16:28.806Z,100.00
2022-10-14T17:18:58.941Z,100.00
2022-10-14T17:21:29.822Z,100.00
2022-10-14T17:24:02.027Z,100.00
2022-10-14T17:26:33.072Z,100.00
2022-10-14T17:29:00.299Z,100.00
2022-10-14T17:31:29.039Z,100.00
2022-10-14T17:33:56.279Z,100.00
2022-10-14T17:36:29.004Z,100.00
2022-10-14T17:38:58.304Z,100.00
2022-10-14T17:41:29.612Z,100.00
2022-10-14T17:44:01.423Z,100.00
2022-10-14T17:46:31.410Z,100.00
2022-10-14T17:49:03.996Z,100.00
2022-10-14T17:51:32.991Z,100.00
2022-10-14T17:54:05.122Z,100.00
2022-10-14T17:56:36.436Z,100.00
2022-10-14T17:59:10.473Z,100.00
2022-10-14T18:02:00.896Z,100.00
2022-10-14T18:04:24.707Z,100.00
2022-10-14T18:06:52.663Z,100.00
2022-10-14T18:09:19.726Z,100.00
2022-10-14T18:12:07.544Z,100.00
2022-10-14T18:14:34.122Z,100.00
2022-10-14T18:17:01.668Z,100.00
2022-10-14T18:19:28.737Z,100.00
2022-10-14T18:21:55.729Z,100.00
2022-10-14T18:24:23.443Z,100.00
2022-10-14T18:26:52.811Z,100.00
2022-10-14T18:29:20.143Z,100.00
2022-10-14T18:34:37.262Z,100.00
2022-10-14T18:37:04.278Z,100.00
2022-10-14T18:39:31.192Z,100.00
2022-10-14T18:41:58.339Z,100.00
2022-10-14T18:44:25.601Z,100.00
2022-10-14T18:46:53.018Z,100.00
2022-10-14T18:49:20.157Z,100.00
2022-10-14T18:51:47.136Z,100.00
2022-10-14T18:54:18.911Z,100.00
2022-10-14T18:56:47.279Z,100.00
2022-10-14T18:59:20.270Z,100.00
2022-10-14T19:01:53.370Z,100.00
2022-10-14T19:04:26.870Z,100.00
2022-10-14T19:06:54.520Z,100.00
2022-10-14T19:09:24.910Z,100.00
2022-10-14T19:11:52.960Z,100.00
2022-10-14T19:14:20.782Z,100.00
2022-10-14T19:16:49.576Z,100.00
2022-10-14T19:19:20.148Z,100.00
2022-10-14T19:21:54.555Z,100.00
2022-10-14T19:24:21.893Z,100.00
2022-10-14T19:26:50.113Z,100.00
2022-10-14T19:29:17.625Z,100.00
2022-10-14T19:31:45.032Z,100.00
2022-10-14T19:34:16.265Z,100.00
2022-10-14T19:36:45.719Z,100.00
2022-10-14T19:39:16.949Z,100.00
2022-10-14T19:41:46.416Z,100.00
2022-10-14T19:44:16.474Z,100.00
2022-10-14T19:46:45.384Z,100.00
2022-10-14T19:49:15.532Z,100.00
2022-10-14T19:51:43.422Z,100.00
2022-10-14T19:54:13.488Z,100.00
2022-10-14T19:56:40.514Z,100.00
2022-10-14T19:59:08.846Z,100.00
2022-10-14T20:01:36.064Z,100.00
2022-10-14T20:04:03.543Z,100.00
2022-10-14T20:06:35.753Z,100.00
2022-10-14T20:09:04.355Z,100.00
2022-10-14T20:11:31.426Z,100.00
2022-10-14T20:13:58.440Z,100.00
2022-10-14T20:16:27.061Z,100.00
2022-10-14T20:18:54.940Z,100.00
2022-10-14T20:21:21.964Z,100.00
2022-10-14T20:23:48.949Z,100.00
2022-10-14T20:26:21.318Z,100.00
2022-10-14T20:28:50.202Z,100.00
2022-10-14T20:31:22.062Z,100.00
2022-10-14T20:33:49.613Z,100.00
2022-10-14T20:36:21.781Z,100.00
2022-10-14T20:38:50.209Z,100.00
2022-10-14T20:41:27.209Z,100.00
2022-10-14T20:43:56.155Z,100.00
2022-10-14T20:46:24.879Z,100.00
2022-10-14T20:48:58.253Z,100.00
2022-10-14T20:51:26.264Z,100.00
2022-10-14T20:54:02.732Z,100.00
2022-10-14T20:56:34.784Z,100.00
2022-10-14T20:59:07.567Z,100.00
2022-10-14T21:01:36.886Z,100.00
2022-10-14T21:04:08.073Z,100.00
2022-10-14T21:06:36.567Z,100.00
2022-10-14T21:09:03.867Z,100.00
2022-10-14T21:11:31.205Z,100.00
2022-10-14T21:14:00.745Z,100.00
2022-10-14T21:16:36.204Z,100.00
2022-10-14T21:19:09.015Z,100.00
2022-10-14T21:21:45.481Z,100.00
2022-10-14T21:24:16.937Z,100.00
2022-10-14T21:26:49.348Z,100.00
2022-10-14T21:29:18.501Z,100.00
2022-10-14T21:31:46.791Z,100.00
2022-10-14T21:34:15.040Z,100.00
2022-10-14T21:36:42.927Z,100.00
2022-10-14T21:39:15.413Z,100.00
2022-10-14T21:41:43.032Z,100.00
2022-10-14T21:44:16.843Z,100.00
2022-10-14T21:46:44.534Z,100.00
2022-10-14T21:49:12.878Z,100.00
2022-10-14T21:51:40.667Z,100.00
2022-10-14T21:54:10.935Z,100.00
2022-10-14T21:56:37.998Z,100.00
2022-10-14T21:59:04.978Z,100.00
2022-10-14T22:01:32.236Z,100.00
2022-10-14T22:04:04.436Z,100.00
2022-10-14T22:06:35.974Z,100.00
2022-10-14T22:09:07.655Z,100.00
2022-10-14T22:11:40.453Z,100.00
2022-10-14T22:14:18.836Z,100.00
2022-10-14T22:16:47.752Z,100.00
2022-10-14T22:19:15.322Z,100.00
2022-10-14T22:21:46.263Z,100.00
2022-10-14T22:24:14.571Z,100.00
2022-10-14T22:26:42.457Z,100.00
2022-10-14T22:29:17.335Z,100.00
2022-10-14T22:31:45.895Z,100.00
2022-10-14T22:34:17.833Z,100.00
2022-10-14T22:36:45.706Z,100.00
2022-10-14T22:39:16.417Z,100.00
2022-10-14T22:41:43.664Z,100.00
2022-10-14T22:44:10.838Z,100.00
2022-10-14T22:46:40.483Z,100.00
2022-10-14T22:49:07.806Z,100.00
2022-10-14T22:51:42.608Z,100.00
2022-10-14T22:54:11.211Z,100.00
2022-10-14T22:56:40.362Z,100.00
2022-10-14T22:59:11.594Z,100.00
2022-10-14T23:01:43.519Z,100.00
2022-10-14T23:04:11.997Z,100.00
2022-10-14T23:06:40.438Z,100.00
2022-10-14T23:09:07.416Z,100.00
2022-10-14T23:11:34.418Z,100.00
2022-10-14T23:14:04.583Z,100.00
2022-10-14T23:16:34.846Z,100.00
2022-10-14T23:19:02.700Z,100.00
2022-10-14T23:21:35.455Z,100.00
2022-10-14T23:24:11.945Z,100.00
2022-10-14T23:26:39.233Z,100.00
2022-10-14T23:29:11.796Z,100.00
2022-10-14T23:31:41.251Z,100.00
2022-10-14T23:34:13.609Z,100.00
2022-10-14T23:36:41.611Z,100.00
2022-10-14T23:39:09.367Z,100.00
2022-10-14T23:41:36.484Z,100.00
2022-10-14T23:44:03.733Z,100.00
2022-10-14T23:46:30.974Z,100.00
2022-10-14T23:49:07.728Z,100.00
2022-10-14T23:51:44.860Z,100.00
2022-10-14T23:54:11.832Z,100.00
2022-10-14T23:56:38.784Z,100.00
2022-10-14T23:59:05.753Z,100.00
